Aeroporto :
LOGIN :

Iscrizione | Disclaimer

   EN    FR    IT 

 










Sommario :    VFR   VFR Marginale   IFR   IFR Intensivo   IFR Molto Intensivo
Visibilità : 
Base nubi : 
>= 8 km
>= 3000ft
5 / 8 km
1000 / 3000 ft
1500m / 5 km
500 / 1000 ft
800 / 1500m
200 / 500 ft
< 800m
< 200 ft
Simboli :   Temporali  Nebbia  Neve Forte  Precipitazioni Forti  Vento > 20 kt
SIGMETs :   Varie  Temporali  Ghiacco  Turbolenza  Onda orograficha  Ceneri Vulcaniche






- Altitudine del aeroporto : 202 ft
- Codice IATA : LGW


EGKK - London Gatwick

ULTIMO METAR :
  • 210950Z 18007KT 150V210 4100 RADZ BKN006 BKN014 15/14 Q0991

METARs OBSOLETI :
  • 210920Z 18004KT 120V220 3300 RA BKN006 BKN013 15/14 Q0991
  • 210850Z 16005KT 120V190 5000 RA BKN007 BKN014 14/14 Q0991
  • 210820Z 16006KT 110V190 9000 -RA BKN009 BKN017 14/14 Q0992
  • 210750Z 15005KT 120V190 6000 -RADZ BKN007 BKN017 14/14 Q0992 RERA REDZ
  • 210720Z 15006KT 4300 RADZ BKN008 BKN017 14/14 Q0993 RERA

TAF TAF EGKK
Valido dal 21 a 06 ore il 22 a 12 ore UTC


210456Z 2106/2212 14008KT 9999 BKN012
TEMPO 2106/2114 3500 +RA RADZ BKN008
BECMG 2107/2110 22012KT
PROB30
TEMPO 2107/2110 21015G25KT
TEMPO 2110/2115 24020G32KT
BECMG 2112/2114 SCT015
TEMPO 2114/2122 6000 -RA BKN012
PROB30
TEMPO 2117/2124 23016G28KT
PROB30
TEMPO 2209/2212 22015G25KT 4000 +SHRA



MetMap, La meteo Aeronautica in un colpo d'occhio ! - Copyright ORBIFLY Dicembre 2007 - Disclaimer

ORBIFLY MET'MAP TEAM :

Programmazione e sviluppo : Alexandra Zaïnal
Concezione : Baudouin d'Aumeries
Aiuto per la programmazione : Marc-Olivier Méhu
Supporto tecnico e logistico : Manuel Goepfert
Aiuto per la traduzione : Arnaldo La Scala

Contatto : metmap@orbifly.com




FONTI E CREDITI :

   NOAA